New Straitsville, Ohio
Current Conditions -  °F | °C
As of 8:53 AM on Monday 24 Nov 2014 (Local Time) from KLHQ Reporting Station
Few Clouds Few Clouds  
Wind Chill: 62°   Ceiling: Unl
Heat Index: 62°   Visibility: 10mi
Dew Point: 52°   Wind: 21mph
Humidity: 70%   Direction: 190°S
Pressure: 29.36"   Gusts: 29mph
Location:  39.58°N, 82.24°W
Report Text: KLHQ 241353Z AUTO 19018G25KT 10SM FEW060 17/11 A2936 RMK AO2 PK WND 18027/1330 SLP939 T01670111
Loading
Personal Weather Stations






























Interactive Weather Map New forecast layout! Learn more

10-Day Weather Forecast

Advertisements
Track Severe Weather on mobile